Time;durP1;ratioP1;P1;durP2;ratioP2;P2;SDS_P1;SDS_P2;PMS_P1;PMS_P2;Temp;Humidity;BMP_temperature;BMP_pressure;BME280_temperature;BME280_humidity;BME280_pressure;Samples;Min_cycle;Max_cycle;Signal;HPM_P1;HPM_P2
2023/07/15 00:01:36;;;;;;;4.20;2.60;;;17.40;99.90;;;;;;4993584;28;20240;-82
2023/07/15 00:04:02;;;;;;;5.82;3.00;;;17.30;1.00;;;;;;4974263;28;20184;-82
2023/07/15 00:06:28;;;;;;;6.10;2.70;;;17.00;1.00;;;;;;4975709;28;20186;-81
2023/07/15 00:08:55;;;;;;;6.75;2.90;;;17.30;99.90;;;;;;4994121;28;20678;-81
2023/07/15 00:11:41;;;;;;;7.95;3.10;;;16.90;7.50;;;;;;4977276;28;20644;-81
2023/07/15 00:14:17;;;;;;;5.65;2.85;;;16.80;18.20;;;;;;4977014;28;20184;-82
2023/07/15 00:16:43;;;;;;;5.97;3.15;;;;;;;;;;4992594;28;20200;-82
2023/07/15 00:19:09;;;;;;;3.30;2.83;;;16.70;1.00;;;;;;4992996;28;20196;-81
2023/07/15 00:21:35;;;;;;;4.43;2.67;;;17.00;1.00;;;;;;4976092;28;20187;-81
2023/07/15 00:24:01;;;;;;;6.75;3.10;;;16.80;27.20;;;;;;4975982;28;20191;-81
2023/07/15 00:26:30;;;;;;;4.30;2.70;;;16.60;22.80;;;;;;4991656;28;20187;-82
2023/07/15 00:28:55;;;;;;;4.18;3.10;;;16.60;32.30;;;;;;4995961;28;20188;-81
2023/07/15 00:31:23;;;;;;;5.50;2.55;;;;;;;;;;4998337;28;20187;-80
2023/07/15 00:33:49;;;;;;;3.08;2.72;;;17.00;1.00;;;;;;4995849;28;20179;-81
2023/07/15 00:36:16;;;;;;;5.22;3.20;;;16.80;99.90;;;;;;4979569;28;20188;-81
2023/07/15 00:38:43;;;;;;;4.50;2.80;;;16.80;1.00;;;;;;4980437;28;20177;-81
2023/07/15 00:41:28;;;;;;;5.65;2.95;;;16.80;99.90;;;;;;4995462;28;20203;-81
2023/07/15 00:43:58;;;;;;;5.32;2.88;;;16.70;26.90;;;;;;4973397;28;20191;-81
2023/07/15 00:46:28;;;;;;;5.53;2.90;;;16.90;23.90;;;;;;4997039;28;20183;-82
2023/07/15 00:49:22;;;;;;;4.03;2.72;;;16.90;13.60;;;;;;4997053;28;20180;-81
2023/07/15 00:51:58;;;;;;;5.75;2.97;;;16.50;1.00;;;;;;4988745;28;20219;-82
2023/07/15 00:54:23;;;;;;;3.35;3.00;;;16.80;65.60;;;;;;4995040;28;20206;-81
2023/07/15 00:56:49;;;;;;;4.10;2.80;;;;;;;;;;4995971;28;20184;-81
2023/07/15 00:59:16;;;;;;;4.85;2.80;;;16.80;99.90;;;;;;4988508;28;20195;-81
2023/07/15 01:01:44;;;;;;;5.75;3.10;;;17.00;14.20;;;;;;4978589;28;20208;-81
2023/07/15 01:04:09;;;;;;;4.03;2.80;;;16.80;99.90;;;;;;4995524;28;20199;-81
2023/07/15 01:06:35;;;;;;;4.43;2.70;;;;;;;;;;4996532;28;20315;-82
2023/07/15 01:09:07;;;;;;;3.90;2.90;;;17.00;25.90;;;;;;4995340;28;20270;-81
2023/07/15 01:11:33;;;;;;;4.00;2.72;;;17.20;1.00;;;;;;4979335;28;20650;-80
2023/07/15 01:13:59;;;;;;;4.55;3.00;;;17.10;44.90;;;;;;4995963;28;20218;-81
2023/07/15 01:16:25;;;;;;;4.40;3.17;;;;;;;;;;4995765;28;20176;-81
2023/07/15 01:18:51;;;;;;;5.15;2.90;;;;;;;;;;4995563;28;20187;-81
2023/07/15 01:21:19;;;;;;;5.35;3.05;;;16.70;99.90;;;;;;4988086;28;20183;-81
2023/07/15 01:23:45;;;;;;;3.85;3.15;;;;;;;;;;4996892;28;20646;-80
2023/07/15 01:26:11;;;;;;;7.43;3.10;;;;;;;;;;4997004;28;20226;-81
2023/07/15 01:28:37;;;;;;;4.45;3.30;;;16.70;24.20;;;;;;4995507;28;20204;-81
2023/07/15 01:31:04;;;;;;;6.57;2.90;;;;;;;;;;4979093;28;20761;-80
2023/07/15 01:33:30;;;;;;;6.20;3.17;;;17.10;63.30;;;;;;4995054;28;20187;-83
2023/07/15 01:35:56;;;;;;;5.55;2.80;;;;;;;;;;4997079;28;20211;-81
2023/07/15 01:38:22;;;;;;;4.25;3.25;;;17.00;62.10;;;;;;4997018;28;20234;-82
2023/07/15 01:40:48;;;;;;;8.30;3.45;;;;;;;;;;4993792;28;20274;-81
2023/07/15 01:43:14;;;;;;;5.43;3.10;;;;;;;;;;4988203;28;20207;-80
2023/07/15 01:45:39;;;;;;;3.65;3.00;;;16.40;76.10;;;;;;4988114;28;20199;-82
2023/07/15 01:48:07;;;;;;;4.85;2.80;;;;;;;;;;4994808;28;20184;-82
2023/07/15 01:50:33;;;;;;;3.10;2.80;;;16.70;33.10;;;;;;4995193;28;20184;-82
2023/07/15 01:52:59;;;;;;;5.07;3.22;;;16.80;57.20;;;;;;4992949;28;20187;-83
2023/07/15 01:55:25;;;;;;;4.00;3.17;;;16.90;47.40;;;;;;4994151;28;20216;-82
2023/07/15 01:57:50;;;;;;;6.10;3.05;;;16.30;61.00;;;;;;4994249;28;20173;-84
2023/07/15 02:00:16;;;;;;;5.50;3.10;;;16.90;1.00;;;;;;4993343;28;20216;-83
2023/07/15 02:02:43;;;;;;;4.93;3.30;;;16.60;99.90;;;;;;4993672;28;20203;-83
2023/07/15 02:05:09;;;;;;;6.03;3.15;;;16.30;1.00;;;;;;4994107;28;20218;-83
2023/07/15 02:07:35;;;;;;;4.00;2.70;;;16.80;35.60;;;;;;4978602;28;20647;-82
2023/07/15 02:10:01;;;;;;;5.93;3.30;;;;;;;;;;4978990;28;20563;-82
2023/07/15 02:12:28;;;;;;;5.10;3.40;;;;;;;;;;4987734;28;20229;-83
2023/07/15 02:14:53;;;;;;;5.10;3.28;;;16.40;21.70;;;;;;4994120;28;20203;-82
2023/07/15 02:17:22;;;;;;;7.93;3.85;;;16.60;1.00;;;;;;4995521;28;20190;-83
2023/07/15 02:19:48;;;;;;;6.10;3.53;;;;;;;;;;4979243;28;20191;-83
2023/07/15 02:22:14;;;;;;;7.32;3.75;;;;;;;;;;4994707;28;20222;-82
2023/07/15 02:24:40;;;;;;;3.40;3.00;;;;;;;;;;4994647;28;21085;-83
2023/07/15 02:27:07;;;;;;;4.72;3.33;;;;;;;;;;4993846;28;20187;-84
2023/07/15 02:29:33;;;;;;;6.25;4.15;;;;;;;;;;4994989;28;20234;-82
2023/07/15 02:31:59;;;;;;;4.82;3.45;;;;;;;;;;4994095;28;20227;-82
2023/07/15 02:34:24;;;;;;;4.03;2.95;;;16.00;64.50;;;;;;4995755;28;20412;-83
2023/07/15 02:36:50;;;;;;;5.53;3.22;;;;;;;;;;4994101;28;20184;-84
2023/07/15 02:39:16;;;;;;;4.88;3.33;;;16.10;57.70;;;;;;4994063;28;20180;-82
2023/07/15 02:41:43;;;;;;;4.65;3.25;;;;;;;;;;4994747;28;21185;-83
2023/07/15 02:44:08;;;;;;;4.82;3.45;;;16.40;82.90;;;;;;4994438;28;20304;-83
2023/07/15 02:46:34;;;;;;;9.45;3.63;;;;;;;;;;4994535;28;20185;-82
2023/07/15 02:49:00;;;;;;;4.45;3.00;;;;;;;;;;4996689;28;20187;-83
2023/07/15 02:51:26;;;;;;;4.25;3.20;;;;;;;;;;4993649;28;20653;-82
2023/07/15 02:53:52;;;;;;;3.85;3.20;;;;;;;;;;4992913;28;20307;-83
2023/07/15 02:56:18;;;;;;;5.20;3.85;;;16.40;1.00;;;;;;4993421;28;20271;-82
2023/07/15 02:58:44;;;;;;;4.47;3.20;;;;;;;;;;4978412;28;20354;-82
2023/07/15 03:01:11;;;;;;;5.15;2.85;;;;;;;;;;4992527;28;20188;-82
2023/07/15 03:03:37;;;;;;;7.15;3.67;;;;;;;;;;4985071;28;20697;-82
2023/07/15 03:06:03;;;;;;;4.22;3.20;;;16.30;1.00;;;;;;4993670;28;20220;-82
2023/07/15 03:08:29;;;;;;;5.57;3.20;;;;;;;;;;4994437;28;20180;-82
2023/07/15 03:10:55;;;;;;;4.45;3.10;;;15.90;90.40;;;;;;4991708;28;20281;-82
2023/07/15 03:13:25;;;;;;;4.75;3.22;;;15.90;95.70;;;;;;4994436;28;20714;-84
2023/07/15 03:15:52;;;;;;;4.32;3.17;;;15.90;99.90;;;;;;4992865;28;20219;-82
2023/07/15 03:18:21;;;;;;;5.93;3.10;;;;;;;;;;4991889;28;20200;-81
2023/07/15 03:20:47;;;;;;;5.65;3.33;;;16.30;1.00;;;;;;4994090;28;20206;-82
2023/07/15 03:23:13;;;;;;;8.68;3.70;;;;;;;;;;4993405;28;20207;-83
2023/07/15 03:25:39;;;;;;;3.90;3.00;;;;;;;;;;4994539;28;20242;-82
2023/07/15 03:28:05;;;;;;;4.85;3.22;;;;;;;;;;4992821;28;20203;-82
2023/07/15 03:30:31;;;;;;;4.20;3.65;;;;;;;;;;4994945;28;20566;-82
2023/07/15 03:32:57;;;;;;;5.75;3.47;;;16.00;1.00;;;;;;4993595;28;20239;-81
2023/07/15 03:35:23;;;;;;;3.72;3.33;;;15.70;99.90;;;;;;4994340;28;20207;-82
2023/07/15 03:37:49;;;;;;;5.28;3.63;;;;;;;;;;4977192;28;20183;-82
2023/07/15 03:40:15;;;;;;;4.45;3.63;;;16.20;1.00;;;;;;4993718;28;20188;-82
2023/07/15 03:42:41;;;;;;;4.60;3.63;;;16.20;99.90;;;;;;4992220;28;20694;-81
2023/07/15 03:45:08;;;;;;;5.50;3.53;;;16.10;99.90;;;;;;4986296;28;20208;-81
2023/07/15 03:47:34;;;;;;;3.80;3.33;;;16.30;90.50;;;;;;4994165;28;20180;-82
2023/07/15 03:50:05;;;;;;;4.82;3.22;;;16.20;1.00;;;;;;4993254;28;20188;-82
2023/07/15 03:52:31;;;;;;;6.32;3.20;;;16.00;91.30;;;;;;4976311;28;20187;-81
2023/07/15 03:54:58;;;;;;;3.75;3.35;;;16.40;1.00;;;;;;4993867;28;20203;-81
2023/07/15 03:57:24;;;;;;;5.95;3.53;;;;;;;;;;4977376;28;20261;-82
2023/07/15 03:59:50;;;;;;;6.70;3.35;;;;;;;;;;4992874;28;20275;-82
2023/07/15 04:02:17;;;;;;;3.38;3.08;;;;;;;;;;4992647;28;20203;-82
2023/07/15 04:04:43;;;;;;;6.82;3.38;;;;;;;;;;4996976;28;20211;-82
2023/07/15 04:07:10;;;;;;;4.25;3.22;;;;;;;;;;4997135;28;20192;-82
2023/07/15 04:09:36;;;;;;;3.70;3.38;;;16.20;72.00;;;;;;4989553;28;20589;-82
2023/07/15 04:12:02;;;;;;;3.90;3.30;;;16.60;52.60;;;;;;4996176;28;20192;-82
2023/07/15 04:14:28;;;;;;;5.05;3.35;;;;;;;;;;4980852;28;20693;-82
2023/07/15 04:16:54;;;;;;;5.88;3.35;;;;;;;;;;4998297;28;20192;-82
2023/07/15 04:19:20;;;;;;;6.22;3.50;;;;;;;;;;4996371;28;20231;-81
2023/07/15 04:21:46;;;;;;;4.22;3.28;;;;;;;;;;4997681;28;20278;-81
2023/07/15 04:24:12;;;;;;;3.60;3.25;;;;;;;;;;4997689;28;20211;-81
2023/07/15 04:26:38;;;;;;;5.18;3.08;;;17.00;55.90;;;;;;4997834;28;20264;-83
2023/07/15 04:29:03;;;;;;;5.38;3.00;;;16.80;1.00;;;;;;4997978;28;20180;-82
2023/07/15 04:31:29;;;;;;;3.80;3.25;;;;;;;;;;4981323;28;20176;-82
2023/07/15 04:33:55;;;;;;;5.10;3.20;;;17.10;99.90;;;;;;4989304;28;20224;-82
2023/07/15 04:36:22;;;;;;;6.30;3.40;;;17.20;99.90;;;;;;4980085;28;20215;-82
2023/07/15 04:38:48;;;;;;;5.10;3.10;;;17.20;99.90;;;;;;4980624;28;20176;-82
2023/07/15 04:41:14;;;;;;;5.05;2.90;;;;;;;;;;4997209;28;20186;-82
2023/07/15 04:43:40;;;;;;;4.50;2.97;;;;;;;;;;4997723;28;20290;-82
2023/07/15 04:46:06;;;;;;;3.72;3.10;;;17.30;99.90;;;;;;4995910;28;20282;-82
2023/07/15 04:48:32;;;;;;;5.38;3.17;;;17.80;99.90;;;;;;4996536;28;20176;-82
2023/07/15 04:53:33;;;;;;;4.80;3.15;;;17.40;1.00;;;;;;5235307;23;20269;-82
2023/07/15 04:55:59;;;;;;;4.90;3.30;;;18.20;40.60;;;;;;4988917;28;20196;-83
2023/07/15 04:58:25;;;;;;;5.20;2.92;;;17.70;1.00;;;;;;4996257;28;20243;-82
2023/07/15 05:00:51;;;;;;;3.92;2.60;;;;;;;;;;4975444;28;20600;-82
2023/07/15 05:03:17;;;;;;;3.50;3.10;;;;;;;;;;4964764;28;20220;-82
2023/07/15 05:05:46;;;;;;;3.88;3.03;;;;;;;;;;4969889;28;20662;-82
2023/07/15 05:08:17;;;;;;;3.65;2.80;;;20.70;1.00;;;;;;4978607;28;20207;-82
2023/07/15 05:10:44;;;;;;;3.17;2.67;;;;;;;;;;4963295;28;20192;-82
2023/07/15 05:13:10;;;;;;;4.28;2.50;;;;;;;;;;4977893;28;20201;-83
2023/07/15 05:15:36;;;;;;;4.13;2.70;;;25.60;94.90;;;;;;4977697;28;20193;-82
2023/07/15 05:18:04;;;;;;;2.72;2.50;;;;;;;;;;4966465;28;20223;-82
2023/07/15 05:20:31;;;;;;;3.22;2.58;;;27.60;1.00;;;;;;4977900;28;20190;-82
2023/07/15 05:22:57;;;;;;;3.63;2.65;;;26.10;1.00;;;;;;4974297;28;20231;-82
2023/07/15 05:25:23;;;;;;;3.88;2.70;;;;;;;;;;4965187;28;20224;-82
2023/07/15 05:27:49;;;;;;;4.47;2.50;;;25.00;1.00;;;;;;4982286;28;20193;-83
2023/07/15 05:30:15;;;;;;;6.22;2.70;;;;;;;;;;4971474;28;20536;-82
2023/07/15 05:32:41;;;;;;;4.55;2.70;;;;;;;;;;4978450;28;20205;-82
2023/07/15 05:35:07;;;;;;;3.40;2.80;;;;;;;;;;4977615;28;20253;-82
2023/07/15 05:37:33;;;;;;;3.92;2.65;;;24.60;1.00;;;;;;4978028;28;20205;-83
2023/07/15 05:39:58;;;;;;;3.78;2.50;;;24.70;1.00;;;;;;4976548;28;20196;-81
2023/07/15 05:42:24;;;;;;;3.72;2.65;;;24.50;1.00;;;;;;4976217;28;20223;-82
2023/07/15 05:44:49;;;;;;;2.63;2.40;;;25.30;1.00;;;;;;4977056;28;20360;-82
2023/07/15 05:47:16;;;;;;;4.13;2.60;;;;;;;;;;4980859;28;20260;-81
2023/07/15 05:49:42;;;;;;;4.90;2.47;;;;;;;;;;4978309;28;20184;-82
2023/07/15 05:52:08;;;;;;;5.32;2.70;;;28.40;1.00;;;;;;4973776;28;20208;-83
2023/07/15 05:54:33;;;;;;;3.25;2.80;;;28.60;65.40;;;;;;4979350;28;20192;-82
2023/07/15 05:56:59;;;;;;;3.00;2.40;;;29.70;64.20;;;;;;4981394;28;20661;-80
2023/07/15 05:59:24;;;;;;;4.80;2.50;;;30.80;48.70;;;;;;4977996;28;20186;-82
2023/07/15 06:01:50;;;;;;;2.40;2.17;;;31.80;1.00;;;;;;4963423;28;20251;-84
2023/07/15 06:04:16;;;;;;;3.22;2.45;;;31.90;58.40;;;;;;4978057;28;20192;-83
2023/07/15 06:06:41;;;;;;;3.20;2.67;;;32.00;1.00;;;;;;4959670;28;20276;-79
2023/07/15 06:09:07;;;;;;;3.15;2.17;;;32.00;40.70;;;;;;4979666;28;20194;-84
2023/07/15 06:11:33;;;;;;;3.22;2.75;;;32.60;27.40;;;;;;4960657;28;20342;-83
2023/07/15 06:14:02;;;;;;;3.55;2.13;;;33.40;50.40;;;;;;4965549;28;20617;-80
2023/07/15 06:16:28;;;;;;;2.53;2.22;;;32.70;37.00;;;;;;4961765;28;20213;-84
2023/07/15 06:18:54;;;;;;;3.70;2.47;;;32.80;50.20;;;;;;4971058;28;20210;-83
2023/07/15 06:21:20;;;;;;;3.75;2.40;;;33.10;45.60;;;;;;4977797;28;20192;-81
2023/07/15 06:23:45;;;;;;;6.47;2.58;;;33.80;55.80;;;;;;4979691;28;20216;-80
2023/07/15 06:26:11;;;;;;;2.50;2.30;;;35.20;57.70;;;;;;4970662;28;20208;-83
2023/07/15 06:28:36;;;;;;;3.58;2.55;;;36.10;56.90;;;;;;4981428;28;20689;-80
2023/07/15 06:31:03;;;;;;;4.13;2.60;;;36.50;70.10;;;;;;4981664;28;20191;-79
2023/07/15 06:33:29;;;;;;;2.92;2.47;;;36.00;77.80;;;;;;4965187;28;20203;-82
2023/07/15 06:35:55;;;;;;;2.95;2.30;;;36.60;69.90;;;;;;4973173;28;20205;-82
2023/07/15 06:38:21;;;;;;;4.47;2.60;;;36.00;66.00;;;;;;4977755;28;20658;-82
2023/07/15 06:40:46;;;;;;;4.78;2.20;;;35.90;56.40;;;;;;4961809;28;20243;-82
2023/07/15 06:43:12;;;;;;;3.10;2.25;;;37.10;72.90;;;;;;4975457;28;21081;-83
2023/07/15 06:45:37;;;;;;;2.53;2.30;;;37.60;41.40;;;;;;4971110;28;20187;-81
2023/07/15 06:48:03;;;;;;;3.85;2.42;;;37.90;49.90;;;;;;4976664;28;20253;-78
2023/07/15 06:50:29;;;;;;;2.72;2.42;;;37.40;52.30;;;;;;4969996;28;20193;-83
2023/07/15 06:52:55;;;;;;;3.65;2.28;;;37.50;28.00;;;;;;4974845;28;20681;-84
2023/07/15 06:55:21;;;;;;;3.05;2.00;;;38.20;64.70;;;;;;4966236;28;20207;-84
2023/07/15 06:57:47;;;;;;;3.30;2.10;;;38.60;58.30;;;;;;4975531;28;20183;-83
2023/07/15 07:00:13;;;;;;;3.67;2.22;;;37.70;78.50;;;;;;4973820;28;20223;-83
2023/07/15 07:02:39;;;;;;;3.85;2.03;;;;;;;;;;4974664;28;20232;-83
2023/07/15 07:05:05;;;;;;;2.13;2.00;;;38.30;47.90;;;;;;4982187;28;20647;-85
2023/07/15 07:07:30;;;;;;;3.63;2.25;;;38.90;77.10;;;;;;4976588;28;20204;-85
2023/07/15 07:09:56;;;;;;;2.60;2.38;;;40.30;1.00;;;;;;4981811;28;20184;-83
2023/07/15 07:12:22;;;;;;;2.47;2.25;;;;;;;;;;4966925;28;20247;-85
2023/07/15 07:14:48;;;;;;;2.40;2.20;;;40.30;62.30;;;;;;4976135;28;20243;-84
2023/07/15 07:17:14;;;;;;;3.03;2.35;;;40.70;78.20;;;;;;4979818;28;20184;-84
2023/07/15 07:19:39;;;;;;;2.80;2.28;;;40.30;53.30;;;;;;4979870;28;20194;-85
2023/07/15 07:22:05;;;;;;;2.15;1.90;;;41.10;51.50;;;;;;4980918;28;20212;-85
2023/07/15 07:24:31;;;;;;;4.05;2.20;;;41.60;62.60;;;;;;4975212;28;20180;-85
2023/07/15 07:26:57;;;;;;;2.90;2.22;;;41.90;75.70;;;;;;4980933;28;20182;-84
2023/07/15 07:29:23;;;;;;;2.45;2.25;;;41.50;37.80;;;;;;4978581;28;20169;-83
2023/07/15 07:31:52;;;;;;;3.13;2.40;;;41.20;45.40;;;;;;4982078;28;20207;-84
2023/07/15 07:34:18;;;;;;;3.10;2.17;;;39.70;75.20;;;;;;4982844;28;20179;-84
2023/07/15 07:36:44;;;;;;;2.97;2.20;;;36.90;51.30;;;;;;4974669;28;20180;-82
2023/07/15 07:39:10;;;;;;;2.20;2.00;;;34.80;61.90;;;;;;4980369;28;20192;-84
2023/07/15 07:41:36;;;;;;;2.30;2.10;;;33.90;72.00;;;;;;4979816;28;20210;-83
2023/07/15 07:44:02;;;;;;;2.47;2.22;;;32.80;62.90;;;;;;4978502;28;20232;-83
2023/07/15 07:46:27;;;;;;;2.15;1.95;;;32.30;51.20;;;;;;4979477;28;20176;-85
2023/07/15 07:48:53;;;;;;;4.15;2.20;;;31.90;57.20;;;;;;4980551;28;20938;-83
2023/07/15 07:51:18;;;;;;;2.33;2.00;;;31.30;70.30;;;;;;4977547;28;20216;-83
2023/07/15 07:53:44;;;;;;;2.53;2.28;;;31.00;72.90;;;;;;4977504;28;20216;-84
2023/07/15 07:56:11;;;;;;;2.90;2.20;;;30.90;53.00;;;;;;4975107;28;20201;-83
2023/07/15 07:58:38;;;;;;;3.25;2.35;;;30.80;52.70;;;;;;4972549;28;21103;-84
2023/07/15 08:01:04;;;;;;;2.63;2.00;;;30.80;45.60;;;;;;4979557;28;20188;-83
2023/07/15 08:03:29;;;;;;;2.20;1.80;;;30.60;57.40;;;;;;4982994;28;20213;-83
2023/07/15 08:05:57;;;;;;;4.63;2.30;;;30.50;57.40;;;;;;4980344;28;20262;-83
2023/07/15 08:08:22;;;;;;;2.90;1.80;;;30.20;40.60;;;;;;4976530;28;20561;-82
2023/07/15 08:10:48;;;;;;;3.03;1.55;;;30.20;42.70;;;;;;4965242;28;20183;-83
2023/07/15 08:13:13;;;;;;;2.92;2.10;;;30.20;40.10;;;;;;4977173;28;20562;-83
2023/07/15 08:15:39;;;;;;;3.33;2.05;;;30.10;40.20;;;;;;4983334;28;20181;-83
2023/07/15 08:18:06;;;;;;;3.33;1.75;;;30.10;48.10;;;;;;4975799;28;20219;-82
2023/07/15 08:20:32;;;;;;;2.22;1.90;;;30.10;53.60;;;;;;4966229;28;20189;-84
2023/07/15 08:22:58;;;;;;;2.45;2.13;;;30.20;60.00;;;;;;4979702;28;20212;-84
2023/07/15 08:25:24;;;;;;;2.90;1.73;;;30.20;53.50;;;;;;4972022;28;20655;-83
2023/07/15 08:27:51;;;;;;;2.55;1.70;;;30.30;55.20;;;;;;4966873;28;20213;-81
2023/07/15 08:30:18;;;;;;;2.40;2.00;;;29.80;1.00;;;;;;4982677;28;20267;-83
2023/07/15 08:32:43;;;;;;;2.00;1.90;;;30.00;46.90;;;;;;4977756;28;20200;-83
2023/07/15 08:35:09;;;;;;;2.38;1.80;;;30.10;48.80;;;;;;4977576;28;20185;-82
2023/07/15 08:37:35;;;;;;;2.92;1.80;;;30.10;45.90;;;;;;4977351;28;20284;-82
2023/07/15 08:40:00;;;;;;;4.95;1.73;;;30.30;44.10;;;;;;4964613;28;20185;-83
2023/07/15 08:42:27;;;;;;;3.28;1.83;;;30.40;43.20;;;;;;4965910;28;20208;-82
2023/07/15 08:44:52;;;;;;;2.10;1.75;;;30.60;34.60;;;;;;4975025;28;20267;-82
2023/07/15 08:47:20;;;;;;;2.38;1.92;;;30.80;42.90;;;;;;4977518;28;20263;-83
2023/07/15 08:49:51;;;;;;;2.75;1.85;;;30.90;35.40;;;;;;4975824;28;20181;-83
2023/07/15 08:52:22;;;;;;;2.00;1.80;;;30.90;21.00;;;;;;4977594;28;20277;-83
2023/07/15 08:54:49;;;;;;;4.10;2.00;;;30.90;15.10;;;;;;4977883;28;20196;-82
2023/07/15 08:57:18;;;;;;;3.75;1.80;;;31.00;14.30;;;;;;4969671;28;20196;-83
2023/07/15 08:59:48;;;;;;;3.35;1.80;;;31.00;2.30;;;;;;4981654;28;20196;-84
2023/07/15 09:02:14;;;;;;;1.70;1.60;;;30.90;7.30;;;;;;4973090;28;20244;-84
2023/07/15 09:04:40;;;;;;;2.15;1.65;;;30.90;17.70;;;;;;4979502;28;20223;-83
2023/07/15 09:07:07;;;;;;;1.88;1.48;;;30.90;21.80;;;;;;4964511;28;20216;-83
2023/07/15 09:09:37;;;;;;;2.38;1.33;;;31.00;29.30;;;;;;4951636;28;20183;-82
2023/07/15 09:12:05;;;;;;;1.90;1.33;;;31.00;23.50;;;;;;4978695;28;20213;-83
2023/07/15 09:14:31;;;;;;;3.63;1.60;;;31.10;23.50;;;;;;4968948;28;20197;-84
2023/07/15 09:16:59;;;;;;;1.60;1.50;;;30.90;23.70;;;;;;4970011;28;20188;-82
2023/07/15 09:19:28;;;;;;;2.17;1.40;;;31.00;39.90;;;;;;4980633;28;20185;-82
2023/07/15 09:22:03;;;;;;;2.38;1.42;;;30.80;48.50;;;;;;4966123;28;20181;-83
2023/07/15 09:24:30;;;;;;;1.88;1.30;;;30.90;44.50;;;;;;4964060;28;20184;-83
2023/07/15 09:26:58;;;;;;;1.40;1.30;;;31.10;37.20;;;;;;4965007;28;20625;-83
2023/07/15 09:29:24;;;;;;;3.30;1.50;;;30.90;40.70;;;;;;4964925;28;20593;-84
2023/07/15 09:31:50;;;;;;;1.90;1.40;;;30.90;27.20;;;;;;4973196;28;20644;-83
2023/07/15 09:34:16;;;;;;;2.08;1.20;;;30.50;27.10;;;;;;4977120;28;20185;-83
2023/07/15 09:36:42;;;;;;;2.25;1.45;;;30.50;37.00;;;;;;4979769;28;20566;-82
2023/07/15 09:39:12;;;;;;;3.03;1.40;;;30.40;51.40;;;;;;4977763;28;20317;-82
2023/07/15 09:41:39;;;;;;;2.08;1.20;;;30.30;35.70;;;;;;4960881;28;20651;-83
2023/07/15 09:44:05;;;;;;;1.67;1.23;;;30.20;24.90;;;;;;4966972;28;20243;-82
2023/07/15 09:46:31;;;;;;;1.23;1.13;;;30.10;35.20;;;;;;4978163;28;20186;-82
2023/07/15 09:48:57;;;;;;;2.85;1.30;;;30.00;30.70;;;;;;4965222;28;20264;-82
2023/07/15 09:51:24;;;;;;;2.75;1.42;;;30.20;32.10;;;;;;4975379;28;20664;-83
2023/07/15 09:53:52;;;;;;;3.05;1.33;;;30.20;33.80;;;;;;4973671;28;20200;-81
2023/07/15 09:56:24;;;;;;;1.50;1.20;;;30.00;39.70;;;;;;4980840;28;20321;-83
2023/07/15 09:58:54;;;;;;;2.72;1.30;;;29.30;29.50;;;;;;4975239;28;20185;-84
2023/07/15 10:01:37;;;;;;;3.65;1.30;;;30.30;45.70;;;;;;4978284;28;20271;-83
2023/07/15 10:04:12;;;;;;;1.40;1.20;;;30.50;22.30;;;;;;4971007;28;20220;-84
2023/07/15 10:06:38;;;;;;;1.60;1.48;;;30.70;16.00;;;;;;4981115;28;20227;-84
2023/07/15 10:09:05;;;;;;;1.50;1.40;;;30.70;26.10;;;;;;4962804;28;20181;-84
2023/07/15 10:11:33;;;;;;;1.88;1.50;;;30.90;36.10;;;;;;4962769;28;20181;-84
2023/07/15 10:14:00;;;;;;;1.73;1.45;;;31.00;35.50;;;;;;4964518;28;20208;-84
2023/07/15 10:16:26;;;;;;;1.45;1.27;;;31.40;22.00;;;;;;4965094;28;20216;-83
2023/07/15 10:18:55;;;;;;;1.55;1.38;;;31.50;18.20;;;;;;4965245;28;20499;-83
2023/07/15 10:21:20;;;;;;;2.67;1.50;;;31.40;18.10;;;;;;4964854;28;20215;-84
2023/07/15 10:23:46;;;;;;;2.40;1.38;;;31.20;18.50;;;;;;4977320;28;20249;-84
2023/07/15 10:26:19;;;;;;;1.67;1.45;;;31.10;18.70;;;;;;4977033;28;20532;-84
2023/07/15 10:28:51;;;;;;;1.58;1.48;;;30.90;34.10;;;;;;4970155;28;20667;-83
2023/07/15 10:31:22;;;;;;;2.63;1.50;;;31.90;28.00;;;;;;4965643;28;20180;-84
2023/07/15 10:33:55;;;;;;;2.20;1.20;;;30.30;29.60;;;;;;4977805;28;20227;-84
2023/07/15 10:36:44;;;;;;;3.55;1.80;;;29.90;22.70;;;;;;4982412;28;20189;-84
2023/07/15 10:39:16;;;;;;;3.10;1.88;;;29.50;21.80;;;;;;4961307;28;20181;-83
2023/07/15 10:41:47;;;;;;;4.15;1.48;;;29.10;32.00;;;;;;4953765;28;20199;-83
2023/07/15 10:44:23;;;;;;;1.95;1.70;;;28.90;25.90;;;;;;4974187;28;20189;-83
2023/07/15 10:47:02;;;;;;;1.88;1.42;;;28.90;17.40;;;;;;4980814;28;20720;-84
2023/07/15 10:49:30;;;;;;;2.38;1.77;;;29.00;23.10;;;;;;4974874;28;20180;-84
2023/07/15 10:51:56;;;;;;;2.38;1.80;;;29.10;28.90;;;;;;4975288;28;20736;-83
2023/07/15 10:54:22;;;;;;;4.35;1.83;;;28.90;16.70;;;;;;4967971;28;20197;-84
2023/07/15 10:56:49;;;;;;;2.08;1.83;;;28.60;18.20;;;;;;4966120;28;20193;-83
2023/07/15 10:59:15;;;;;;;4.50;1.85;;;28.40;19.10;;;;;;4976058;28;20711;-84
2023/07/15 11:01:42;;;;;;;2.35;2.15;;;27.90;13.10;;;;;;4964698;28;20195;-84
2023/07/15 11:04:08;;;;;;;4.22;1.88;;;28.30;25.00;;;;;;4964902;28;20213;-83
2023/07/15 11:06:34;;;;;;;2.65;1.80;;;28.20;10.40;;;;;;4971563;28;20571;-84
2023/07/15 11:09:21;;;;;;;3.50;2.20;;;28.10;19.60;;;;;;4967812;28;20983;-84
2023/07/15 11:11:48;;;;;;;4.40;2.40;;;28.00;21.70;;;;;;4968075;28;20184;-83
2023/07/15 11:14:26;;;;;;;4.55;2.22;;;27.70;20.70;;;;;;4979210;28;20185;-84
2023/07/15 11:16:54;;;;;;;3.03;2.10;;;27.40;18.90;;;;;;4982292;28;20188;-82
2023/07/15 11:19:21;;;;;;;2.97;1.92;;;27.00;43.10;;;;;;4966474;28;20212;-85
2023/07/15 11:21:47;;;;;;;3.78;2.20;;;26.50;35.50;;;;;;4980159;28;20196;-84
2023/07/15 11:24:14;;;;;;;3.40;2.40;;;26.30;31.20;;;;;;4980231;28;20209;-84
2023/07/15 11:26:41;;;;;;;3.03;2.30;;;26.00;28.90;;;;;;4983186;28;20181;-85
2023/07/15 11:29:17;;;;;;;3.50;2.40;;;25.90;42.20;;;;;;4976409;28;20224;-85
2023/07/15 11:31:46;;;;;;;3.35;2.35;;;26.00;59.70;;;;;;4966807;28;20172;-83
2023/07/15 11:34:12;;;;;;;2.67;2.25;;;26.10;55.80;;;;;;4965785;28;20174;-83
2023/07/15 11:36:39;;;;;;;3.58;2.20;;;26.20;84.70;;;;;;4979514;28;20653;-85
2023/07/15 11:39:05;;;;;;;3.03;2.10;;;26.20;85.00;;;;;;4971554;28;20193;-85
2023/07/15 11:41:36;;;;;;;2.28;2.08;;;26.20;88.50;;;;;;4974257;28;20524;-84
2023/07/15 11:44:09;;;;;;;2.22;2.03;;;26.20;92.30;;;;;;4965946;28;20216;-83
2023/07/15 11:46:37;;;;;;;2.45;2.10;;;26.40;86.30;;;;;;4966023;28;20181;-85
2023/07/15 11:49:03;;;;;;;2.55;2.00;;;26.50;83.00;;;;;;4951309;28;20291;-85
2023/07/15 11:51:32;;;;;;;2.75;2.28;;;26.50;88.80;;;;;;4966111;28;20574;-84
2023/07/15 11:53:58;;;;;;;1.98;1.88;;;26.60;88.10;;;;;;4979505;28;20217;-84
2023/07/15 11:56:41;;;;;;;2.33;2.13;;;26.50;76.80;;;;;;4925541;28;1070203;-83
2023/07/15 11:59:08;;;;;;;2.40;2.20;;;26.40;57.30;;;;;;4961293;28;20184;-83
2023/07/15 12:01:35;;;;;;;2.25;2.10;;;26.30;88.50;;;;;;4960580;28;20680;-84
2023/07/15 12:04:01;;;;;;;2.28;2.08;;;26.20;80.90;;;;;;4961659;28;20226;-83
2023/07/15 12:06:28;;;;;;;3.10;2.17;;;26.10;88.90;;;;;;4971505;28;20177;-83
2023/07/15 12:09:10;;;;;;;4.68;2.35;;;26.00;98.10;;;;;;4962811;28;20181;-83
2023/07/15 12:11:36;;;;;;;2.20;2.10;;;26.10;99.90;;;;;;4961931;28;20553;-83
2023/07/15 12:14:04;;;;;;;1.98;1.88;;;26.20;58.50;;;;;;4964389;28;20307;-83
2023/07/15 12:16:31;;;;;;;3.65;2.10;;;26.20;96.90;;;;;;4978308;28;20263;-83
2023/07/15 12:18:58;;;;;;;2.72;2.20;;;26.10;82.30;;;;;;4974573;28;20257;-83
2023/07/15 12:21:24;;;;;;;3.97;2.47;;;26.00;90.10;;;;;;4962139;28;20187;-83
2023/07/15 12:23:52;;;;;;;2.80;2.20;;;26.00;96.40;;;;;;4964059;28;20221;-83
2023/07/15 12:26:19;;;;;;;2.22;2.10;;;25.80;99.90;;;;;;4979720;28;20178;-83
2023/07/15 12:28:45;;;;;;;2.40;2.20;;;25.60;99.90;;;;;;4981096;28;20192;-83
2023/07/15 12:31:11;;;;;;;3.63;2.00;;;25.50;94.10;;;;;;4973029;28;20185;-83
2023/07/15 12:33:37;;;;;;;3.28;2.40;;;25.50;99.30;;;;;;4965565;28;20208;-83
2023/07/15 12:36:03;;;;;;;2.97;2.20;;;25.60;87.00;;;;;;4975285;28;20235;-83
2023/07/15 12:38:29;;;;;;;3.92;2.20;;;25.70;97.80;;;;;;4966583;28;20283;-83
2023/07/15 12:40:55;;;;;;;5.88;2.50;;;25.90;85.50;;;;;;4960859;28;20314;-83
2023/07/15 12:43:23;;;;;;;3.72;2.25;;;26.00;79.50;;;;;;4967933;28;20204;-83
2023/07/15 12:45:49;;;;;;;2.30;2.10;;;26.10;99.90;;;;;;4967541;28;20184;-83
2023/07/15 12:48:15;;;;;;;2.70;2.10;;;26.10;99.90;;;;;;4966729;28;20173;-83
2023/07/15 12:50:41;;;;;;;2.15;2.00;;;26.00;96.10;;;;;;4981003;28;20207;-83
2023/07/15 12:53:06;;;;;;;2.83;2.17;;;25.90;99.90;;;;;;4982718;28;20212;-83
2023/07/15 12:55:32;;;;;;;2.65;2.40;;;25.70;99.90;;;;;;4981302;28;20264;-83
2023/07/15 12:57:57;;;;;;;3.40;2.38;;;25.50;99.90;;;;;;4975280;28;20232;-83
2023/07/15 13:00:23;;;;;;;2.20;2.00;;;25.40;99.90;;;;;;4976730;28;20189;-83
2023/07/15 13:02:49;;;;;;;2.67;1.90;;;25.50;99.90;;;;;;4979158;28;20209;-83
2023/07/15 13:05:14;;;;;;;2.28;2.05;;;25.70;95.90;;;;;;4971280;28;20546;-84
2023/07/15 13:07:40;;;;;;;2.95;1.83;;;25.80;90.80;;;;;;4979423;28;20181;-83
2023/07/15 13:10:06;;;;;;;2.50;2.10;;;26.00;99.40;;;;;;4978294;28;20181;-84